^^
Grace C. Lehan Memorial Weather Station Historical Data
Daily Summary for May 24, 2022 Units:  Both    English   Metric
Daily Weekly Monthly Yearly
  High: Low: Average:
Temperature: 74.6 °F /  23.7 °C 54.6 °F /  12.6 °C 63.7 °F /  17.6 °C
Dew Point: 52.4 °F /  11.3 °C 44 °F /  6.7 °C 47.5 °F /  8.6 °C
Humidity: 73% 40.7% 56%
Wind Speed: 3mph /  4.8km/h - 0.4mph /  0.6km/h
Wind Gust: 10mph /  16.1km/h - -
Wind- - ESE
Pressure: 30.32 in /  1026.6 hPa 30.21 in /  1022.9 hPa -
Precipitation: 0.00 in /  0 mm    
 
 
Tabular Data for May 24, 2022
Time Temperature Dew Point Pressure Wind Wind Speed Wind Gust Humidity Rainfall Rate (Hourly) solar
00:09 64 °F /  17.8 °C 46.3 °F /  7.9 °C 30.21in /  1022.9hPa Calm     52.5% 0.00in /  0mm 0 W/m2
00:14 64 °F /  17.8 °C 46.5 °F /  8.1 °C 30.21in /  1022.9hPa NNE 0.1mph /  0.2km/h 2mph /  3.2km/h 53% 0.00in /  0mm 0 W/m2
00:19 63.8 °F /  17.7 °C 46.9 °F /  8.3 °C 30.22in /  1023.2hPa NNE 0.2mph /  0.3km/h 3mph /  4.8km/h 54% 0.00in /  0mm 0 W/m2
00:24 63.7 °F /  17.6 °C 46.6 °F /  8.1 °C 30.22in /  1023.2hPa North 0.3mph /  0.5km/h 3mph /  4.8km/h 53.8% 0.00in /  0mm 0 W/m2
00:29 63.6 °F /  17.6 °C 46.6 °F /  8.1 °C 30.22in /  1023.2hPa Calm   3mph /  4.8km/h 53.9% 0.00in /  0mm 0 W/m2
00:34 63.4 °F /  17.4 °C 46.6 °F /  8.1 °C 30.22in /  1023.2hPa NNW 0.8mph /  1.3km/h 5mph /  8km/h 54.2% 0.00in /  0mm 0 W/m2
00:39 63.2 °F /  17.3 °C 46.4 °F /  8 °C 30.22in /  1023.2hPa NW 0.4mph /  0.6km/h 5mph /  8km/h 54.2% 0.00in /  0mm 0 W/m2
00:44 63 °F /  17.2 °C 46.4 °F /  8 °C 30.22in /  1023.2hPa NNW 1mph /  1.6km/h 6mph /  9.7km/h 54.5% 0.00in /  0mm 0 W/m2
00:49 62.8 °F /  17.1 °C 46.3 °F /  7.9 °C 30.22in /  1023.2hPa NW 0.3mph /  0.5km/h 6mph /  9.7km/h 54.8% 0.00in /  0mm 0 W/m2
00:54 62.6 °F /  17 °C 46.1 °F /  7.8 °C 30.22in /  1023.2hPa NNW 0.5mph /  0.8km/h 6mph /  9.7km/h 54.7% 0.00in /  0mm 0 W/m2
00:59 62.5 °F /  16.9 °C 46 °F /  7.8 °C 30.22in /  1023.2hPa North 0.3mph /  0.5km/h 6mph /  9.7km/h 54.8% 0.00in /  0mm 0 W/m2
01:04 62.3 °F /  16.8 °C 46.2 °F /  7.9 °C 30.22in /  1023.2hPa NNW 0.6mph /  1km/h 6mph /  9.7km/h 55.4% 0.00in /  0mm 0 W/m2
01:09 62.2 °F /  16.8 °C 45.9 °F /  7.7 °C 30.22in /  1023.2hPa NW 0.5mph /  0.8km/h 4mph /  6.4km/h 55.1% 0.00in /  0mm 0 W/m2
01:14 62 °F /  16.7 °C 45.8 °F /  7.7 °C 30.22in /  1023.2hPa North 0.9mph /  1.4km/h 7mph /  11.3km/h 55.1% 0.00in /  0mm 0 W/m2
01:19 61.8 °F /  16.6 °C 45.7 °F /  7.6 °C 30.22in /  1023.2hPa NE 0.2mph /  0.3km/h 7mph /  11.3km/h 55.4% 0.00in /  0mm 0 W/m2
01:24 61.7 °F /  16.5 °C 45.4 °F /  7.4 °C 30.22in /  1023.2hPa NE 0.3mph /  0.5km/h 7mph /  11.3km/h 55% 0.00in /  0mm 0 W/m2
01:29 61.6 °F /  16.4 °C 45.3 °F /  7.4 °C 30.22in /  1023.2hPa NE 0.1mph /  0.2km/h 7mph /  11.3km/h 55% 0.00in /  0mm 0 W/m2
01:34 61.4 °F /  16.3 °C 45.1 °F /  7.3 °C 30.22in /  1023.2hPa NNE 0.7mph /  1.1km/h 7mph /  11.3km/h 55% 0.00in /  0mm 0 W/m2
01:39 61.3 °F /  16.3 °C 45 °F /  7.2 °C 30.22in /  1023.2hPa NE 0.2mph /  0.3km/h 5mph /  8km/h 55% 0.00in /  0mm 0 W/m2
01:44 61.2 °F /  16.2 °C 45.3 °F /  7.4 °C 30.23in /  1023.6hPa NE 0.2mph /  0.3km/h 5mph /  8km/h 55.7% 0.00in /  0mm 0 W/m2
01:49 61.1 °F /  16.2 °C 44.9 °F /  7.2 °C 30.23in /  1023.6hPa NE 0.6mph /  1km/h 5mph /  8km/h 55% 0.00in /  0mm 0 W/m2
01:54 61 °F /  16.1 °C 45.2 °F /  7.3 °C 30.23in /  1023.6hPa NE 0.1mph /  0.2km/h 5mph /  8km/h 56% 0.00in /  0mm 0 W/m2
01:59 60.9 °F /  16.1 °C 45.2 °F /  7.3 °C 30.23in /  1023.6hPa Calm   5mph /  8km/h 56% 0.00in /  0mm 0 W/m2
02:04 60.9 °F /  16.1 °C 45.3 °F /  7.4 °C 30.23in /  1023.6hPa NE 0.1mph /  0.2km/h 5mph /  8km/h 56.4% 0.00in /  0mm 0 W/m2
02:09 60.8 °F /  16 °C 45.7 °F /  7.6 °C 30.23in /  1023.6hPa ENE 0.1mph /  0.2km/h 3mph /  4.8km/h 57.6% 0.00in /  0mm 0 W/m2
02:14 60.6 °F /  15.9 °C 45.9 °F /  7.7 °C 30.23in /  1023.6hPa NE 0.4mph /  0.6km/h 4mph /  6.4km/h 58.2% 0.00in /  0mm 0 W/m2
02:19 60.5 °F /  15.8 °C 46.9 °F /  8.3 °C 30.23in /  1023.6hPa NE 0.1mph /  0.2km/h 4mph /  6.4km/h 60.8% 0.00in /  0mm 0 W/m2
02:24 60.2 °F /  15.7 °C 47.1 °F /  8.4 °C 30.23in /  1023.6hPa Calm   4mph /  6.4km/h 61.8% 0.00in /  0mm 0 W/m2
02:29 60 °F /  15.6 °C 47.7 °F /  8.7 °C 30.23in /  1023.6hPa Calm   4mph /  6.4km/h 63.8% 0.00in /  0mm 0 W/m2
02:34 59.8 °F /  15.4 °C 47.9 °F /  8.8 °C 30.23in /  1023.6hPa North 0.2mph /  0.3km/h 4mph /  6.4km/h 64.5% 0.00in /  0mm 0 W/m2
02:39 59.6 °F /  15.3 °C 47.3 °F /  8.5 °C 30.23in /  1023.6hPa North 0.2mph /  0.3km/h 3mph /  4.8km/h 63.8% 0.00in /  0mm 0 W/m2
02:44 59.4 °F /  15.2 °C 46.8 °F /  8.2 °C 30.23in /  1023.6hPa North 0.1mph /  0.2km/h 3mph /  4.8km/h 62.8% 0.00in /  0mm 0 W/m2
02:49 59.3 °F /  15.2 °C 47 °F /  8.3 °C 30.23in /  1023.6hPa Calm   3mph /  4.8km/h 63.6% 0.00in /  0mm 0 W/m2
02:54 59.1 °F /  15.1 °C 46.5 °F /  8.1 °C 30.23in /  1023.6hPa NNE 0.4mph /  0.6km/h 4mph /  6.4km/h 62.8% 0.00in /  0mm 0 W/m2
02:59 59 °F /  15 °C 46.5 °F /  8.1 °C 30.24in /  1023.9hPa ENE 0.3mph /  0.5km/h 5mph /  8km/h 63.1% 0.00in /  0mm 0 W/m2
03:04 58.9 °F /  14.9 °C 46.2 °F /  7.9 °C 30.24in /  1023.9hPa ENE 0.3mph /  0.5km/h 5mph /  8km/h 62.6% 0.00in /  0mm 0 W/m2
03:09 58.9 °F /  14.9 °C 46.2 °F /  7.9 °C 30.24in /  1023.9hPa ENE 0.1mph /  0.2km/h 3mph /  4.8km/h 62.7% 0.00in /  0mm 0 W/m2
03:14 58.8 °F /  14.9 °C 46.2 °F /  7.9 °C 30.24in /  1023.9hPa NE 0.2mph /  0.3km/h 3mph /  4.8km/h 62.9% 0.00in /  0mm 0 W/m2
03:19 58.8 °F /  14.9 °C 46.4 °F /  8 °C 30.24in /  1023.9hPa Calm   3mph /  4.8km/h 63.4% 0.00in /  0mm 0 W/m2
03:24 58.7 °F /  14.8 °C 46.2 °F /  7.9 °C 30.24in /  1023.9hPa Calm   3mph /  4.8km/h 63% 0.00in /  0mm 0 W/m2
03:29 58.6 °F /  14.8 °C 46 °F /  7.8 °C 30.25in /  1024.3hPa NE 0.1mph /  0.2km/h 3mph /  4.8km/h 62.8% 0.00in /  0mm 0 W/m2
03:34 58.5 °F /  14.7 °C 45.9 °F /  7.7 °C 30.24in /  1023.9hPa NE 0.3mph /  0.5km/h 3mph /  4.8km/h 62.9% 0.00in /  0mm 0 W/m2
03:39 58.4 °F /  14.7 °C 45.8 °F /  7.7 °C 30.24in /  1023.9hPa NE 0.3mph /  0.5km/h 3mph /  4.8km/h 62.8% 0.00in /  0mm 0 W/m2
03:44 58.4 °F /  14.7 °C 45.6 °F /  7.6 °C 30.24in /  1023.9hPa ENE 0.4mph /  0.6km/h 3mph /  4.8km/h 62.5% 0.00in /  0mm 0 W/m2
03:49 58.3 °F /  14.6 °C 45.6 °F /  7.6 °C 30.24in /  1023.9hPa ENE 1.4mph /  2.3km/h 6mph /  9.7km/h 62.6% 0.00in /  0mm 0 W/m2
03:54 58.2 °F /  14.6 °C 45.2 °F /  7.3 °C 30.24in /  1023.9hPa ENE 0.5mph /  0.8km/h 6mph /  9.7km/h 61.8% 0.00in /  0mm 0 W/m2
03:59 58.2 °F /  14.6 °C 45.2 °F /  7.3 °C 30.24in /  1023.9hPa Calm   6mph /  9.7km/h 61.8% 0.00in /  0mm 0 W/m2
04:00 58.2 °F /  14.6 °C 45.3 °F /  7.4 °C 30.24in /  1023.9hPa Calm   6mph /  9.7km/h 62% 0.00in /  0mm 0 W/m2
04:09 58.2 °F /  14.6 °C 44.6 °F /  7 °C 30.24in /  1023.9hPa ENE 0.5mph /  0.8km/h 4mph /  6.4km/h 60.4% 0.00in /  0mm 0 W/m2
04:14 58.2 °F /  14.6 °C 44.6 °F /  7 °C 30.24in /  1023.9hPa ENE 1.2mph /  1.9km/h 4mph /  6.4km/h 60.5% 0.00in /  0mm 0 W/m2
04:19 58.2 °F /  14.6 °C 44.4 °F /  6.9 °C 30.24in /  1023.9hPa ENE 1mph /  1.6km/h 7mph /  11.3km/h 60% 0.00in /  0mm 0 W/m2
04:24 58.2 °F /  14.6 °C 44.4 °F /  6.9 °C 30.24in /  1023.9hPa NE 0.2mph /  0.3km/h 7mph /  11.3km/h 60% 0.00in /  0mm 0 W/m2
04:29 58.1 °F /  14.5 °C 44.4 °F /  6.9 °C 30.24in /  1023.9hPa NE 0.2mph /  0.3km/h 7mph /  11.3km/h 60.2% 0.00in /  0mm 0 W/m2
04:34 58.1 °F /  14.5 °C 44.3 °F /  6.8 °C 30.24in /  1023.9hPa ENE 0.2mph /  0.3km/h 7mph /  11.3km/h 60% 0.00in /  0mm 0 W/m2
04:39 58 °F /  14.4 °C 44.2 °F /  6.8 °C 30.24in /  1023.9hPa ENE 0.4mph /  0.6km/h 4mph /  6.4km/h 60% 0.00in /  0mm 0 W/m2
04:44 58 °F /  14.4 °C 44.5 °F /  6.9 °C 30.24in /  1023.9hPa Calm   4mph /  6.4km/h 60.7% 0.00in /  0mm 0 W/m2
04:49 57.9 °F /  14.4 °C 44.5 °F /  6.9 °C 30.24in /  1023.9hPa ENE 0.7mph /  1.1km/h 5mph /  8km/h 60.9% 0.00in /  0mm 0 W/m2
04:54 57.9 °F /  14.4 °C 44.2 °F /  6.8 °C 30.25in /  1024.3hPa ENE 0.3mph /  0.5km/h 5mph /  8km/h 60.3% 0.00in /  0mm 0 W/m2
04:59 57.8 °F /  14.3 °C 44.1 °F /  6.7 °C 30.24in /  1023.9hPa ENE 0.7mph /  1.1km/h 5mph /  8km/h 60.1% 0.00in /  0mm 0 W/m2
05:04 57.7 °F /  14.3 °C 44 °F /  6.7 °C 30.24in /  1023.9hPa ENE 0.1mph /  0.2km/h 5mph /  8km/h 60.2% 0.00in /  0mm 0 W/m2
05:09 57.7 °F /  14.3 °C 44.3 °F /  6.8 °C 30.24in /  1023.9hPa ENE 0.2mph /  0.3km/h 4mph /  6.4km/h 60.9% 0.00in /  0mm 0 W/m2
05:14 57.6 °F /  14.2 °C 44.2 °F /  6.8 °C 30.24in /  1023.9hPa ENE 0.1mph /  0.2km/h 4mph /  6.4km/h 60.8% 0.00in /  0mm 0 W/m2
05:19 57.5 °F /  14.2 °C 44.2 °F /  6.8 °C 30.24in /  1023.9hPa Calm   4mph /  6.4km/h 61% 0.00in /  0mm 0 W/m2
05:24 57.5 °F /  14.2 °C 44.1 °F /  6.7 °C 30.25in /  1024.3hPa Calm   4mph /  6.4km/h 61% 0.00in /  0mm 0 W/m2
05:29 57.4 °F /  14.1 °C 44.4 °F /  6.9 °C 30.24in /  1023.9hPa ENE 0.2mph /  0.3km/h 4mph /  6.4km/h 61.8% 0.00in /  0mm 0 W/m2
05:34 57.3 °F /  14.1 °C 44 °F /  6.7 °C 30.24in /  1023.9hPa ENE 0.1mph /  0.2km/h 4mph /  6.4km/h 61.2% 0.00in /  0mm 7 W/m2
05:39 57.2 °F /  14 °C 44.3 °F /  6.8 °C 30.25in /  1024.3hPa NE 0.3mph /  0.5km/h 4mph /  6.4km/h 62% 0.00in /  0mm 14 W/m2
05:44 57.1 °F /  13.9 °C 44.1 °F /  6.7 °C 30.25in /  1024.3hPa Calm   4mph /  6.4km/h 61.8% 0.00in /  0mm 19 W/m2
05:49 57 °F /  13.9 °C 44.1 °F /  6.7 °C 30.25in /  1024.3hPa NNW 0.2mph /  0.3km/h 4mph /  6.4km/h 62% 0.00in /  0mm 23 W/m2
05:54 57 °F /  13.9 °C 44.1 °F /  6.7 °C 30.25in /  1024.3hPa NNE 0.3mph /  0.5km/h 4mph /  6.4km/h 62% 0.00in /  0mm 28 W/m2
05:59 56.9 °F /  13.8 °C 44.3 °F /  6.8 °C 30.26in /  1024.6hPa East 0.1mph /  0.2km/h 4mph /  6.4km/h 62.6% 0.00in /  0mm 37 W/m2
06:04 56.8 °F /  13.8 °C 44.3 °F /  6.8 °C 30.26in /  1024.6hPa East 0.3mph /  0.5km/h 4mph /  6.4km/h 62.7% 0.00in /  0mm 42 W/m2
06:09 56.8 °F /  13.8 °C 44.3 °F /  6.8 °C 30.26in /  1024.6hPa NNE 0.3mph /  0.5km/h 4mph /  6.4km/h 62.8% 0.00in /  0mm 49 W/m2
06:14 56.7 °F /  13.7 °C 44.3 °F /  6.8 °C 30.26in /  1024.6hPa NNE 0.3mph /  0.5km/h 4mph /  6.4km/h 63.2% 0.00in /  0mm 53 W/m2
06:19 56.7 °F /  13.7 °C 44.3 °F /  6.8 °C 30.26in /  1024.6hPa ENE 0.3mph /  0.5km/h 4mph /  6.4km/h 63% 0.00in /  0mm 56 W/m2
06:24 56.7 °F /  13.7 °C 44.4 °F /  6.9 °C 30.27in /  1024.9hPa ESE 0.3mph /  0.5km/h 5mph /  8km/h 63.3% 0.00in /  0mm 62 W/m2
06:29 56.6 °F /  13.7 °C 44.6 °F /  7 °C 30.27in /  1024.9hPa Calm   5mph /  8km/h 64% 0.00in /  0mm 65 W/m2
06:34 56.6 °F /  13.7 °C 44.6 °F /  7 °C 30.27in /  1024.9hPa ESE 0.1mph /  0.2km/h 5mph /  8km/h 64% 0.00in /  0mm 81 W/m2
06:39 56.6 °F /  13.7 °C 44.7 °F /  7.1 °C 30.27in /  1024.9hPa Calm   2mph /  3.2km/h 64.3% 0.00in /  0mm 93 W/m2
06:44 56.7 °F /  13.7 °C 44.9 °F /  7.2 °C 30.27in /  1024.9hPa ESE 0.1mph /  0.2km/h 3mph /  4.8km/h 64.5% 0.00in /  0mm 109 W/m2
06:49 56.7 °F /  13.7 °C 45.1 °F /  7.3 °C 30.27in /  1024.9hPa NNE 0.7mph /  1.1km/h 4mph /  6.4km/h 65% 0.00in /  0mm 127 W/m2
06:54 56.9 °F /  13.8 °C 45.1 °F /  7.3 °C 30.27in /  1024.9hPa Calm   4mph /  6.4km/h 64.6% 0.00in /  0mm 128 W/m2
06:59 57 °F /  13.9 °C 44.9 °F /  7.2 °C 30.27in /  1024.9hPa ENE 0.5mph /  0.8km/h 4mph /  6.4km/h 64% 0.00in /  0mm 127 W/m2
07:04 57.1 °F /  13.9 °C 45.4 °F /  7.4 °C 30.28in /  1025.3hPa ENE 0.3mph /  0.5km/h 4mph /  6.4km/h 64.8% 0.00in /  0mm 118 W/m2
07:09 57.1 °F /  13.9 °C 45.1 °F /  7.3 °C 30.28in /  1025.3hPa NE 0.1mph /  0.2km/h 4mph /  6.4km/h 64.1% 0.00in /  0mm 123 W/m2
07:14 57.2 °F /  14 °C 45.6 °F /  7.6 °C 30.28in /  1025.3hPa NNE 0.2mph /  0.3km/h 5mph /  8km/h 65% 0.00in /  0mm 130 W/m2
07:19 57.2 °F /  14 °C 45.3 °F /  7.4 °C 30.28in /  1025.3hPa NNE 0.2mph /  0.3km/h 5mph /  8km/h 64.4% 0.00in /  0mm 144 W/m2
07:24 57.2 °F /  14 °C 45.3 °F /  7.4 °C 30.28in /  1025.3hPa NE 0.6mph /  1km/h 5mph /  8km/h 64.5% 0.00in /  0mm 149 W/m2
07:29 57.2 °F /  14 °C 45.4 °F /  7.4 °C 30.28in /  1025.3hPa NNE 0.7mph /  1.1km/h 5mph /  8km/h 64.7% 0.00in /  0mm 169 W/m2
07:34 57.3 °F /  14.1 °C 45.4 °F /  7.4 °C 30.29in /  1025.6hPa ENE 0.9mph /  1.4km/h 6mph /  9.7km/h 64.3% 0.00in /  0mm 195 W/m2
07:39 57.5 °F /  14.2 °C 45.6 °F /  7.6 °C 30.29in /  1025.6hPa ENE 0.6mph /  1km/h 6mph /  9.7km/h 64.6% 0.00in /  0mm 202 W/m2
07:44 57.6 °F /  14.2 °C 45.6 °F /  7.6 °C 30.29in /  1025.6hPa NE 0.1mph /  0.2km/h 6mph /  9.7km/h 64% 0.00in /  0mm 202 W/m2
07:49 57.8 °F /  14.3 °C 45.7 °F /  7.6 °C 30.29in /  1025.6hPa ENE 1.3mph /  2.1km/h 7mph /  11.3km/h 63.9% 0.00in /  0mm 195 W/m2
07:54 57.8 °F /  14.3 °C 45.8 °F /  7.7 °C 30.29in /  1025.6hPa ENE 0.3mph /  0.5km/h 7mph /  11.3km/h 64.1% 0.00in /  0mm 202 W/m2
07:59 58 °F /  14.4 °C 46.1 °F /  7.8 °C 30.30in /  1026hPa ENE 0.4mph /  0.6km/h 7mph /  11.3km/h 64.5% 0.00in /  0mm 239 W/m2
08:00 58.1 °F /  14.5 °C 46.4 °F /  8 °C 30.30in /  1026hPa NNE 1mph /  1.6km/h 7mph /  11.3km/h 65% 0.00in /  0mm 239 W/m2
08:09 58.6 °F /  14.8 °C 46.5 °F /  8.1 °C 30.30in /  1026hPa NE 0.4mph /  0.6km/h 2mph /  3.2km/h 64% 0.00in /  0mm 248 W/m2
08:14 58.8 °F /  14.9 °C 46.3 °F /  7.9 °C 30.30in /  1026hPa NE 0.3mph /  0.5km/h 2mph /  3.2km/h 63.1% 0.00in /  0mm 265 W/m2
08:19 59 °F /  15 °C 46.6 °F /  8.1 °C 30.30in /  1026hPa NNW 0.3mph /  0.5km/h 4mph /  6.4km/h 63.3% 0.00in /  0mm 306 W/m2
08:24 59.2 °F /  15.1 °C 46.6 °F /  8.1 °C 30.30in /  1026hPa NE 0.7mph /  1.1km/h 4mph /  6.4km/h 62.8% 0.00in /  0mm 378 W/m2
08:29 59.5 °F /  15.3 °C 46.8 °F /  8.2 °C 30.30in /  1026hPa ENE 0.6mph /  1km/h 4mph /  6.4km/h 62.7% 0.00in /  0mm 387 W/m2
08:34 59.9 °F /  15.5 °C 47.1 °F /  8.4 °C 30.30in /  1026hPa NE 0.4mph /  0.6km/h 4mph /  6.4km/h 62.4% 0.00in /  0mm 336 W/m2
08:39 60.3 °F /  15.7 °C 46.5 °F /  8.1 °C 30.30in /  1026hPa NE 1.2mph /  1.9km/h 5mph /  8km/h 60.3% 0.00in /  0mm 306 W/m2
08:44 60.2 °F /  15.7 °C 46.1 °F /  7.8 °C 30.30in /  1026hPa NE 0.4mph /  0.6km/h 5mph /  8km/h 59.5% 0.00in /  0mm 294 W/m2
08:49 60.2 °F /  15.7 °C 46.9 °F /  8.3 °C 30.31in /  1026.3hPa NE 0.2mph /  0.3km/h 5mph /  8km/h 61.4% 0.00in /  0mm 341 W/m2
08:54 60.4 °F /  15.8 °C 46.5 °F /  8.1 °C 30.31in /  1026.3hPa NE 1mph /  1.6km/h 5mph /  8km/h 60.1% 0.00in /  0mm 410 W/m2
08:59 60.8 °F /  16 °C 46.6 °F /  8.1 °C 30.31in /  1026.3hPa ENE 0.8mph /  1.3km/h 5mph /  8km/h 59.7% 0.00in /  0mm 417 W/m2
09:04 61.1 °F /  16.2 °C 46.2 °F /  7.9 °C 30.31in /  1026.3hPa ENE 1.5mph /  2.4km/h 10mph /  16.1km/h 58% 0.00in /  0mm 399 W/m2
09:09 61.3 °F /  16.3 °C 46.6 °F /  8.1 °C 30.31in /  1026.3hPa ENE 1.3mph /  2.1km/h 10mph /  16.1km/h 58.4% 0.00in /  0mm 496 W/m2
09:14 61.6 °F /  16.4 °C 46.7 °F /  8.2 °C 30.31in /  1026.3hPa NNE 1mph /  1.6km/h 10mph /  16.1km/h 58.1% 0.00in /  0mm 564 W/m2
09:19 62.1 °F /  16.7 °C 47.7 °F /  8.7 °C 30.31in /  1026.3hPa NE 1.1mph /  1.8km/h 10mph /  16.1km/h 59.2% 0.00in /  0mm 594 W/m2
09:24 62.4 °F /  16.9 °C 46.7 °F /  8.2 °C 30.31in /  1026.3hPa East 1.4mph /  2.3km/h 10mph /  16.1km/h 56.5% 0.00in /  0mm 478 W/m2
09:29 62.5 °F /  16.9 °C 46.6 °F /  8.1 °C 30.31in /  1026.3hPa ENE 0.3mph /  0.5km/h 10mph /  16.1km/h 56% 0.00in /  0mm 480 W/m2
09:34 62.6 °F /  17 °C 47.5 °F /  8.6 °C 30.31in /  1026.3hPa ENE 1.1mph /  1.8km/h 10mph /  16.1km/h 57.8% 0.00in /  0mm 550 W/m2
09:39 63 °F /  17.2 °C 47.7 °F /  8.7 °C 30.31in /  1026.3hPa NE 1.2mph /  1.9km/h 6mph /  9.7km/h 57.4% 0.00in /  0mm 621 W/m2
09:44 63.2 °F /  17.3 °C 47.1 °F /  8.4 °C 30.31in /  1026.3hPa ENE 2.3mph /  3.7km/h 6mph /  9.7km/h 55.5% 0.00in /  0mm 621 W/m2
09:49 63 °F /  17.2 °C 47.1 °F /  8.4 °C 30.31in /  1026.3hPa ENE 1mph /  1.6km/h 6mph /  9.7km/h 56.1% 0.00in /  0mm 436 W/m2
09:54 62.9 °F /  17.2 °C 47.3 °F /  8.5 °C 30.31in /  1026.3hPa ENE 1.3mph /  2.1km/h 6mph /  9.7km/h 56.9% 0.00in /  0mm 708 W/m2
09:59 62.8 °F /  17.1 °C 47.4 °F /  8.6 °C 30.31in /  1026.3hPa ENE 0.7mph /  1.1km/h 6mph /  9.7km/h 57.1% 0.00in /  0mm 589 W/m2
10:04 62.9 °F /  17.2 °C 47.4 °F /  8.6 °C 30.31in /  1026.3hPa ENE 1.3mph /  2.1km/h 6mph /  9.7km/h 56.9% 0.00in /  0mm 652 W/m2
10:09 62.9 °F /  17.2 °C 47.6 °F /  8.7 °C 30.31in /  1026.3hPa ENE 0.7mph /  1.1km/h 6mph /  9.7km/h 57.3% 0.00in /  0mm 621 W/m2
10:14 63.3 °F /  17.4 °C 48.4 °F /  9.1 °C 30.31in /  1026.3hPa NNE 0.9mph /  1.4km/h 6mph /  9.7km/h 58.3% 0.00in /  0mm 621 W/m2
10:19 63.8 °F /  17.7 °C 48.1 °F /  8.9 °C 30.30in /  1026hPa NNE 0.7mph /  1.1km/h 6mph /  9.7km/h 56.5% 0.00in /  0mm 661 W/m2
10:24 64.1 °F /  17.8 °C 48.2 °F /  9 °C 30.30in /  1026hPa NNE 0.2mph /  0.3km/h 6mph /  9.7km/h 56.3% 0.00in /  0mm 765 W/m2
10:29 64.6 °F /  18.1 °C 48.9 °F /  9.4 °C 30.30in /  1026hPa NE 3mph /  4.8km/h 10mph /  16.1km/h 56.8% 0.00in /  0mm 689 W/m2
10:34 65.2 °F /  18.4 °C 48.8 °F /  9.3 °C 30.31in /  1026.3hPa NE 1.3mph /  2.1km/h 10mph /  16.1km/h 55.3% 0.00in /  0mm 766 W/m2
10:39 65.6 °F /  18.7 °C 48.5 °F /  9.2 °C 30.31in /  1026.3hPa NE 1.5mph /  2.4km/h 7mph /  11.3km/h 54.1% 0.00in /  0mm 796 W/m2
10:44 65.7 °F /  18.7 °C 49.6 °F /  9.8 °C 30.31in /  1026.3hPa NE 0.3mph /  0.5km/h 7mph /  11.3km/h 56% 0.00in /  0mm 819 W/m2
10:49 66.1 °F /  18.9 °C 49.4 °F /  9.7 °C 30.31in /  1026.3hPa ENE 0.3mph /  0.5km/h 7mph /  11.3km/h 55% 0.00in /  0mm 842 W/m2
10:54 66.4 °F /  19.1 °C 49.9 °F /  9.9 °C 30.31in /  1026.3hPa ENE 0.1mph /  0.2km/h 7mph /  11.3km/h 55.3% 0.00in /  0mm 761 W/m2
10:59 66.9 °F /  19.4 °C 49.4 °F /  9.7 °C 30.31in /  1026.3hPa ENE 0.6mph /  1km/h 7mph /  11.3km/h 53.2% 0.00in /  0mm 728 W/m2
11:04 67.1 °F /  19.5 °C 49 °F /  9.4 °C 30.31in /  1026.3hPa ENE 1mph /  1.6km/h 7mph /  11.3km/h 52.1% 0.00in /  0mm 719 W/m2
11:09 66.9 °F /  19.4 °C 49.5 °F /  9.7 °C 30.31in /  1026.3hPa ENE 1mph /  1.6km/h 5mph /  8km/h 53.4% 0.00in /  0mm 828 W/m2
11:14 66.9 °F /  19.4 °C 48.2 °F /  9 °C 30.31in /  1026.3hPa ENE 2.2mph /  3.5km/h 7mph /  11.3km/h 50.9% 0.00in /  0mm 860 W/m2
11:19 66.6 °F /  19.2 °C 47.8 °F /  8.8 °C 30.31in /  1026.3hPa East 1.9mph /  3.1km/h 7mph /  11.3km/h 50.8% 0.00in /  0mm 872 W/m2
11:24 66.6 °F /  19.2 °C 48.8 °F /  9.3 °C 30.31in /  1026.3hPa ENE 0.5mph /  0.8km/h 7mph /  11.3km/h 52.7% 0.00in /  0mm 868 W/m2
11:29 67.2 °F /  19.6 °C 49.9 °F /  9.9 °C 30.31in /  1026.3hPa ENE 0.4mph /  0.6km/h 7mph /  11.3km/h 53.9% 0.00in /  0mm 893 W/m2
11:34 67.8 °F /  19.9 °C 50 °F /  10 °C 30.30in /  1026hPa ENE 0.4mph /  0.6km/h 7mph /  11.3km/h 52.9% 0.00in /  0mm 916 W/m2
11:39 68.2 °F /  20.1 °C 50.2 °F /  10.1 °C 30.30in /  1026hPa NE 0.4mph /  0.6km/h 4mph /  6.4km/h 52.4% 0.00in /  0mm 925 W/m2
11:44 68.7 °F /  20.4 °C 50.9 °F /  10.5 °C 30.30in /  1026hPa NE 0.3mph /  0.5km/h 4mph /  6.4km/h 53% 0.00in /  0mm 905 W/m2
11:49 69 °F /  20.6 °C 49.6 °F /  9.8 °C 30.30in /  1026hPa NE 0.1mph /  0.2km/h 4mph /  6.4km/h 50% 0.00in /  0mm 926 W/m2
11:54 68.7 °F /  20.4 °C 48.9 °F /  9.4 °C 30.30in /  1026hPa ENE 1.9mph /  3.1km/h 4mph /  6.4km/h 49.1% 0.00in /  0mm 921 W/m2
11:59 68.2 °F /  20.1 °C 48.3 °F /  9.1 °C 30.30in /  1026hPa East 1.9mph /  3.1km/h 6mph /  9.7km/h 49% 0.00in /  0mm 949 W/m2
12:09 68.4 °F /  20.2 °C 49.1 °F /  9.5 °C 30.29in /  1025.6hPa East 0.1mph /  0.2km/h 1mph /  1.6km/h 50% 0.00in /  0mm 969 W/m2
12:14 69.3 °F /  20.7 °C 51.4 °F /  10.8 °C 30.29in /  1025.6hPa East 0.2mph /  0.3km/h 4mph /  6.4km/h 53% 0.00in /  0mm 974 W/m2
12:19 70.1 °F /  21.2 °C 50.8 °F /  10.4 °C 30.28in /  1025.3hPa East 0.7mph /  1.1km/h 4mph /  6.4km/h 50.4% 0.00in /  0mm 981 W/m2
12:24 70.5 °F /  21.4 °C 50.4 °F /  10.2 °C 30.28in /  1025.3hPa East 0.2mph /  0.3km/h 4mph /  6.4km/h 49% 0.00in /  0mm 981 W/m2
12:29 70.3 °F /  21.3 °C 49.8 °F /  9.9 °C 30.28in /  1025.3hPa East 0.2mph /  0.3km/h 4mph /  6.4km/h 48.2% 0.00in /  0mm 981 W/m2
12:34 70.2 °F /  21.2 °C 50.1 °F /  10.1 °C 30.28in /  1025.3hPa ESE 0.4mph /  0.6km/h 4mph /  6.4km/h 48.9% 0.00in /  0mm 984 W/m2
12:39 69.9 °F /  21.1 °C 48.5 °F /  9.2 °C 30.28in /  1025.3hPa ESE 0.5mph /  0.8km/h 4mph /  6.4km/h 46.5% 0.00in /  0mm 984 W/m2
12:44 69.6 °F /  20.9 °C 49.8 °F /  9.9 °C 30.27in /  1024.9hPa Calm   4mph /  6.4km/h 49.3% 0.00in /  0mm 976 W/m2
12:49 69.7 °F /  20.9 °C 48.6 °F /  9.2 °C 30.27in /  1024.9hPa ESE 0.3mph /  0.5km/h 4mph /  6.4km/h 47.1% 0.00in /  0mm 981 W/m2
12:54 69.8 °F /  21 °C 49.9 °F /  9.9 °C 30.27in /  1024.9hPa SE 0.1mph /  0.2km/h 4mph /  6.4km/h 49.1% 0.00in /  0mm 977 W/m2
12:59 70.2 °F /  21.2 °C 49.7 °F /  9.8 °C 30.27in /  1024.9hPa East 0.8mph /  1.3km/h 5mph /  8km/h 48.3% 0.00in /  0mm 983 W/m2
13:04 70.3 °F /  21.3 °C 49.1 °F /  9.5 °C 30.26in /  1024.6hPa ENE 1.9mph /  3.1km/h 7mph /  11.3km/h 46.9% 0.00in /  0mm 981 W/m2
13:09 70.4 °F /  21.3 °C 48.1 °F /  8.9 °C 30.26in /  1024.6hPa East 1.4mph /  2.3km/h 7mph /  11.3km/h 45.1% 0.00in /  0mm 981 W/m2
13:14 70.3 °F /  21.3 °C 48.4 °F /  9.1 °C 30.26in /  1024.6hPa ENE 1.7mph /  2.7km/h 7mph /  11.3km/h 45.7% 0.00in /  0mm 981 W/m2
13:19 70.2 °F /  21.2 °C 47 °F /  8.3 °C 30.26in /  1024.6hPa East 0.6mph /  1km/h 7mph /  11.3km/h 43.4% 0.00in /  0mm 977 W/m2
13:24 70.3 °F /  21.3 °C 47.8 °F /  8.8 °C 30.26in /  1024.6hPa ENE 0.7mph /  1.1km/h 7mph /  11.3km/h 44.8% 0.00in /  0mm 976 W/m2
13:29 70.4 °F /  21.3 °C 48.7 °F /  9.3 °C 30.26in /  1024.6hPa NE 0.5mph /  0.8km/h 7mph /  11.3km/h 46.1% 0.00in /  0mm 962 W/m2
13:34 70.5 °F /  21.4 °C 48.2 °F /  9 °C 30.26in /  1024.6hPa WNW 2.2mph /  3.5km/h 7mph /  11.3km/h 45% 0.00in /  0mm 976 W/m2
13:39 70.7 °F /  21.5 °C 49.5 °F /  9.7 °C 30.26in /  1024.6hPa WSW 0.8mph /  1.3km/h 6mph /  9.7km/h 47.1% 0.00in /  0mm 979 W/m2
13:44 71 °F /  21.7 °C 49 °F /  9.4 °C 30.26in /  1024.6hPa WSW 0.3mph /  0.5km/h 6mph /  9.7km/h 45.6% 0.00in /  0mm 983 W/m2
13:49 71.2 °F /  21.8 °C 50.1 °F /  10.1 °C 30.25in /  1024.3hPa WSW 0.2mph /  0.3km/h 6mph /  9.7km/h 47.2% 0.00in /  0mm 981 W/m2
13:54 71.5 °F /  21.9 °C 50.1 °F /  10.1 °C 30.25in /  1024.3hPa South 0.6mph /  1km/h 6mph /  9.7km/h 46.8% 0.00in /  0mm 981 W/m2
13:59 71.5 °F /  21.9 °C 48.6 °F /  9.2 °C 30.25in /  1024.3hPa SSW 0.8mph /  1.3km/h 6mph /  9.7km/h 44.3% 0.00in /  0mm 967 W/m2
14:04 71.4 °F /  21.9 °C 49.5 °F /  9.7 °C 30.25in /  1024.3hPa ENE 2.3mph /  3.7km/h 8mph /  12.9km/h 45.8% 0.00in /  0mm 962 W/m2
14:09 71.8 °F /  22.1 °C 48.2 °F /  9 °C 30.25in /  1024.3hPa NE 1.8mph /  2.9km/h 8mph /  12.9km/h 43.1% 0.00in /  0mm 949 W/m2
14:14 71.9 °F /  22.2 °C 48.6 °F /  9.2 °C 30.25in /  1024.3hPa North 1.4mph /  2.3km/h 8mph /  12.9km/h 43.6% 0.00in /  0mm 942 W/m2
14:19 72.1 °F /  22.3 °C 49.3 °F /  9.6 °C 30.25in /  1024.3hPa NNE 0.4mph /  0.6km/h 8mph /  12.9km/h 44.5% 0.00in /  0mm 939 W/m2
14:24 72.4 °F /  22.4 °C 49.5 °F /  9.7 °C 30.25in /  1024.3hPa NNE 0.1mph /  0.2km/h 8mph /  12.9km/h 44.5% 0.00in /  0mm 935 W/m2
14:29 72.6 °F /  22.6 °C 50.3 °F /  10.2 °C 30.25in /  1024.3hPa NNE 1mph /  1.6km/h 8mph /  12.9km/h 45.5% 0.00in /  0mm 925 W/m2
14:34 72.7 °F /  22.6 °C 49.9 °F /  9.9 °C 30.25in /  1024.3hPa Calm   8mph /  12.9km/h 44.7% 0.00in /  0mm 933 W/m2
14:39 72.9 °F /  22.7 °C 50.6 °F /  10.3 °C 30.25in /  1024.3hPa North 0.1mph /  0.2km/h 1mph /  1.6km/h 45.4% 0.00in /  0mm 962 W/m2
14:44 73.1 °F /  22.8 °C 49.3 °F /  9.6 °C 30.25in /  1024.3hPa North 0.1mph /  0.2km/h 2mph /  3.2km/h 42.9% 0.00in /  0mm 935 W/m2
14:49 73.2 °F /  22.9 °C 49.2 °F /  9.6 °C 30.25in /  1024.3hPa NE 0.6mph /  1km/h 4mph /  6.4km/h 42.6% 0.00in /  0mm 904 W/m2
14:54 73 °F /  22.8 °C 49.5 °F /  9.7 °C 30.25in /  1024.3hPa Calm   4mph /  6.4km/h 43.5% 0.00in /  0mm 893 W/m2
14:59 72.9 °F /  22.7 °C 47.9 °F /  8.8 °C 30.25in /  1024.3hPa ENE 1mph /  1.6km/h 4mph /  6.4km/h 41% 0.00in /  0mm 879 W/m2
15:04 72.8 °F /  22.7 °C 48.8 °F /  9.3 °C 30.25in /  1024.3hPa East 0.2mph /  0.3km/h 4mph /  6.4km/h 42.6% 0.00in /  0mm 888 W/m2
15:09 72.7 °F /  22.6 °C 48 °F /  8.9 °C 30.25in /  1024.3hPa Calm   2mph /  3.2km/h 41.5% 0.00in /  0mm 893 W/m2
15:14 72.7 °F /  22.6 °C 47.5 °F /  8.6 °C 30.24in /  1023.9hPa Calm   2mph /  3.2km/h 40.7% 0.00in /  0mm 863 W/m2
15:19 72.5 °F /  22.5 °C 48.4 °F /  9.1 °C 30.24in /  1023.9hPa East 1.2mph /  1.9km/h 4mph /  6.4km/h 42.5% 0.00in /  0mm 856 W/m2
15:24 72.3 °F /  22.4 °C 47.3 °F /  8.5 °C 30.24in /  1023.9hPa East 0.3mph /  0.5km/h 4mph /  6.4km/h 40.9% 0.00in /  0mm 854 W/m2
15:29 72.2 °F /  22.3 °C 48.4 °F /  9.1 °C 30.24in /  1023.9hPa Calm   4mph /  6.4km/h 42.8% 0.00in /  0mm 861 W/m2
15:34 72.6 °F /  22.6 °C 49.7 °F /  9.8 °C 30.24in /  1023.9hPa Calm   4mph /  6.4km/h 44.5% 0.00in /  0mm 872 W/m2
15:39 73.2 °F /  22.9 °C 50.4 °F /  10.2 °C 30.24in /  1023.9hPa East 0.3mph /  0.5km/h 2mph /  3.2km/h 44.6% 0.00in /  0mm 881 W/m2
15:44 73.8 °F /  23.2 °C 50.2 °F /  10.1 °C 30.24in /  1023.9hPa East 0.3mph /  0.5km/h 2mph /  3.2km/h 43.4% 0.00in /  0mm 882 W/m2
15:49 74.1 °F /  23.4 °C 49.9 °F /  9.9 °C 30.24in /  1023.9hPa East 0.3mph /  0.5km/h 3mph /  4.8km/h 42.6% 0.00in /  0mm 886 W/m2
15:54 74 °F /  23.3 °C 51.3 °F /  10.7 °C 30.24in /  1023.9hPa East 0.1mph /  0.2km/h 3mph /  4.8km/h 44.9% 0.00in /  0mm 889 W/m2
15:59 74.4 °F /  23.6 °C 52 °F /  11.1 °C 30.24in /  1023.9hPa ENE 0.6mph /  1km/h 3mph /  4.8km/h 45.5% 0.00in /  0mm 886 W/m2
16:00 74.6 °F /  23.7 °C 51.3 °F /  10.7 °C 30.24in /  1023.9hPa Calm   3mph /  4.8km/h 44% 0.00in /  0mm 877 W/m2
16:09 74.4 °F /  23.6 °C 50.1 °F /  10.1 °C 30.24in /  1023.9hPa Calm     42.5% 0.00in /  0mm 851 W/m2
16:14 74.1 °F /  23.4 °C 50.3 °F /  10.2 °C 30.24in /  1023.9hPa ENE 0.2mph /  0.3km/h 3mph /  4.8km/h 43.3% 0.00in /  0mm 246 W/m2
16:19 73.7 °F /  23.2 °C 50 °F /  10 °C 30.24in /  1023.9hPa Calm   3mph /  4.8km/h 43.3% 0.00in /  0mm 227 W/m2
16:24 73.3 °F /  22.9 °C 50.5 °F /  10.3 °C 30.24in /  1023.9hPa ENE 0.2mph /  0.3km/h 3mph /  4.8km/h 44.8% 0.00in /  0mm 195 W/m2
16:29 73 °F /  22.8 °C 49.8 °F /  9.9 °C 30.24in /  1023.9hPa ENE 0.3mph /  0.5km/h 3mph /  4.8km/h 44% 0.00in /  0mm 183 W/m2
16:34 72.8 °F /  22.7 °C 49.9 °F /  9.9 °C 30.24in /  1023.9hPa ENE 0.3mph /  0.5km/h 3mph /  4.8km/h 44.3% 0.00in /  0mm 165 W/m2
16:39 72.8 °F /  22.7 °C 50.4 °F /  10.2 °C 30.23in /  1023.6hPa ENE 0.2mph /  0.3km/h 3mph /  4.8km/h 45.4% 0.00in /  0mm 155 W/m2
16:44 72.6 °F /  22.6 °C 49.8 °F /  9.9 °C 30.23in /  1023.6hPa East 0.4mph /  0.6km/h 5mph /  8km/h 44.5% 0.00in /  0mm 176 W/m2
16:49 72.2 °F /  22.3 °C 49.3 °F /  9.6 °C 30.24in /  1023.9hPa East 0.2mph /  0.3km/h 5mph /  8km/h 44.3% 0.00in /  0mm 197 W/m2
16:54 71.6 °F /  22 °C 49.4 °F /  9.7 °C 30.24in /  1023.9hPa Calm   5mph /  8km/h 45.4% 0.00in /  0mm 209 W/m2
16:59 71.3 °F /  21.8 °C 49.5 °F /  9.7 °C 30.23in /  1023.6hPa Calm   5mph /  8km/h 46.1% 0.00in /  0mm 216 W/m2
17:04 71.1 °F /  21.7 °C 48.9 °F /  9.4 °C 30.23in /  1023.6hPa Calm   5mph /  8km/h 45.3% 0.00in /  0mm 199 W/m2
17:09 71.1 °F /  21.7 °C 49.9 °F /  9.9 °C 30.24in /  1023.9hPa Calm     47.1% 0.00in /  0mm 183 W/m2
17:14 71.1 °F /  21.7 °C 50.7 °F /  10.4 °C 30.24in /  1023.9hPa Calm   1mph /  1.6km/h 48.5% 0.00in /  0mm 178 W/m2
17:19 71.2 °F /  21.8 °C 49.9 °F /  9.9 °C 30.24in /  1023.9hPa Calm   1mph /  1.6km/h 47% 0.00in /  0mm 165 W/m2
17:24 71.2 °F /  21.8 °C 51.3 °F /  10.7 °C 30.24in /  1023.9hPa East 0.4mph /  0.6km/h 3mph /  4.8km/h 49.4% 0.00in /  0mm 162 W/m2
17:29 71 °F /  21.7 °C 52.1 °F /  11.2 °C 30.24in /  1023.9hPa SE 0.2mph /  0.3km/h 4mph /  6.4km/h 51.1% 0.00in /  0mm 167 W/m2
17:34 70.8 °F /  21.6 °C 51.9 °F /  11.1 °C 30.24in /  1023.9hPa SSE 0.2mph /  0.3km/h 4mph /  6.4km/h 51.2% 0.00in /  0mm 178 W/m2
17:39 70.6 °F /  21.4 °C 52.4 °F /  11.3 °C 30.24in /  1023.9hPa SSE 0.1mph /  0.2km/h 2mph /  3.2km/h 52.6% 0.00in /  0mm 181 W/m2
17:44 70.4 °F /  21.3 °C 52.4 °F /  11.3 °C 30.23in /  1023.6hPa SSE 0.5mph /  0.8km/h 2mph /  3.2km/h 52.9% 0.00in /  0mm 176 W/m2
17:49 70.3 °F /  21.3 °C 51.7 °F /  10.9 °C 30.24in /  1023.9hPa Calm   2mph /  3.2km/h 51.7% 0.00in /  0mm 160 W/m2
17:54 70.2 °F /  21.2 °C 51.5 °F /  10.8 °C 30.24in /  1023.9hPa Calm   2mph /  3.2km/h 51.5% 0.00in /  0mm 171 W/m2
17:59 70.2 °F /  21.2 °C 51.5 °F /  10.8 °C 30.23in /  1023.6hPa Calm   2mph /  3.2km/h 51.4% 0.00in /  0mm 141 W/m2
18:04 70.2 °F /  21.2 °C 51.1 °F /  10.6 °C 30.23in /  1023.6hPa Calm   2mph /  3.2km/h 50.8% 0.00in /  0mm 127 W/m2
18:09 70 °F /  21.1 °C 51.2 °F /  10.7 °C 30.23in /  1023.6hPa SSE 0.1mph /  0.2km/h 2mph /  3.2km/h 51.2% 0.00in /  0mm 118 W/m2
18:14 70 °F /  21.1 °C 51.6 °F /  10.9 °C 30.23in /  1023.6hPa SSE 0.5mph /  0.8km/h 3mph /  4.8km/h 52.2% 0.00in /  0mm 111 W/m2
18:19 69.9 °F /  21.1 °C 51.4 °F /  10.8 °C 30.23in /  1023.6hPa SSE 0.1mph /  0.2km/h 3mph /  4.8km/h 51.8% 0.00in /  0mm 95 W/m2
18:24 69.9 °F /  21.1 °C 51.3 °F /  10.7 °C 30.23in /  1023.6hPa Calm   3mph /  4.8km/h 51.7% 0.00in /  0mm 90 W/m2
18:29 69.7 °F /  20.9 °C 51 °F /  10.6 °C 30.23in /  1023.6hPa Calm   3mph /  4.8km/h 51.4% 0.00in /  0mm 86 W/m2
18:34 69.5 °F /  20.8 °C 50.9 °F /  10.5 °C 30.23in /  1023.6hPa SSE 0.3mph /  0.5km/h 3mph /  4.8km/h 51.7% 0.00in /  0mm 62 W/m2
18:39 69.2 °F /  20.7 °C 49.6 °F /  9.8 °C 30.23in /  1023.6hPa SSE 1mph /  1.6km/h 5mph /  8km/h 49.7% 0.00in /  0mm 46 W/m2
18:44 68.6 °F /  20.3 °C 48.7 °F /  9.3 °C 30.23in /  1023.6hPa SSE 0.8mph /  1.3km/h 5mph /  8km/h 49% 0.00in /  0mm 42 W/m2
18:49 68.1 °F /  20.1 °C 48.6 °F /  9.2 °C 30.24in /  1023.9hPa SSE 0.2mph /  0.3km/h 5mph /  8km/h 49.7% 0.00in /  0mm 33 W/m2
18:54 67.8 °F /  19.9 °C 48.5 °F /  9.2 °C 30.24in /  1023.9hPa SSE 0.1mph /  0.2km/h 5mph /  8km/h 50% 0.00in /  0mm 28 W/m2
18:59 67.5 °F /  19.7 °C 48.8 °F /  9.3 °C 30.24in /  1023.9hPa West 0.2mph /  0.3km/h 5mph /  8km/h 51% 0.00in /  0mm 26 W/m2
19:04 67.3 °F /  19.6 °C 48.2 °F /  9 °C 30.24in /  1023.9hPa Calm   5mph /  8km/h 50.4% 0.00in /  0mm 33 W/m2
19:09 67.1 °F /  19.5 °C 48.3 °F /  9.1 °C 30.24in /  1023.9hPa Calm   2mph /  3.2km/h 50.9% 0.00in /  0mm 33 W/m2
19:14 66.9 °F /  19.4 °C 48.2 °F /  9 °C 30.24in /  1023.9hPa Calm   2mph /  3.2km/h 51% 0.00in /  0mm 33 W/m2
19:19 66.8 °F /  19.3 °C 48.5 °F /  9.2 °C 30.24in /  1023.9hPa West 0.1mph /  0.2km/h 3mph /  4.8km/h 51.8% 0.00in /  0mm 28 W/m2
19:24 66.6 °F /  19.2 °C 48 °F /  8.9 °C 30.24in /  1023.9hPa West 0.1mph /  0.2km/h 3mph /  4.8km/h 51% 0.00in /  0mm 25 W/m2
19:29 66.5 °F /  19.2 °C 48.2 °F /  9 °C 30.25in /  1024.3hPa Calm   3mph /  4.8km/h 51.6% 0.00in /  0mm 21 W/m2
19:34 66.4 °F /  19.1 °C 48.3 °F /  9.1 °C 30.25in /  1024.3hPa Calm   3mph /  4.8km/h 52% 0.00in /  0mm 21 W/m2
19:39 66.3 °F /  19.1 °C 48.5 °F /  9.2 °C 30.25in /  1024.3hPa Calm     52.8% 0.00in /  0mm 14 W/m2
19:44 66.1 °F /  18.9 °C 48.4 °F /  9.1 °C 30.25in /  1024.3hPa Calm     53% 0.00in /  0mm 14 W/m2
19:49 65.8 °F /  18.8 °C 48.3 °F /  9.1 °C 30.25in /  1024.3hPa Calm     53.1% 0.00in /  0mm 11 W/m2
19:54 65.7 °F /  18.7 °C 48.6 °F /  9.2 °C 30.25in /  1024.3hPa Calm   1mph /  1.6km/h 54% 0.00in /  0mm 9 W/m2
19:59 65.5 °F /  18.6 °C 47.9 °F /  8.8 °C 30.25in /  1024.3hPa West 0.1mph /  0.2km/h 2mph /  3.2km/h 53% 0.00in /  0mm 7 W/m2
20:09 65 °F /  18.3 °C 47.4 °F /  8.6 °C 30.25in /  1024.3hPa West 0.2mph /  0.3km/h 2mph /  3.2km/h 52.9% 0.00in /  0mm 0 W/m2
20:14 64.8 °F /  18.2 °C 47.2 °F /  8.4 °C 30.26in /  1024.6hPa West 0.3mph /  0.5km/h 2mph /  3.2km/h 52.8% 0.00in /  0mm 0 W/m2
20:19 64.6 °F /  18.1 °C 47.1 °F /  8.4 °C 30.26in /  1024.6hPa West 0.1mph /  0.2km/h 2mph /  3.2km/h 53.1% 0.00in /  0mm 0 W/m2
20:24 64.4 °F /  18 °C 47.2 °F /  8.4 °C 30.26in /  1024.6hPa WSW 0.3mph /  0.5km/h 2mph /  3.2km/h 53.6% 0.00in /  0mm 0 W/m2
20:29 64.1 °F /  17.8 °C 46.7 °F /  8.2 °C 30.26in /  1024.6hPa WSW 0.4mph /  0.6km/h 3mph /  4.8km/h 53% 0.00in /  0mm 0 W/m2
20:34 63.9 °F /  17.7 °C 46.1 °F /  7.8 °C 30.27in /  1024.9hPa WSW 0.3mph /  0.5km/h 3mph /  4.8km/h 52.3% 0.00in /  0mm 0 W/m2
20:39 63.6 °F /  17.6 °C 46.1 °F /  7.8 °C 30.27in /  1024.9hPa Calm   2mph /  3.2km/h 52.8% 0.00in /  0mm 0 W/m2
20:44 63.3 °F /  17.4 °C 46 °F /  7.8 °C 30.28in /  1025.3hPa Calm   2mph /  3.2km/h 53.1% 0.00in /  0mm 0 W/m2
20:49 63.1 °F /  17.3 °C 46.2 °F /  7.9 °C 30.28in /  1025.3hPa Calm   2mph /  3.2km/h 54% 0.00in /  0mm 0 W/m2
20:54 62.8 °F /  17.1 °C 45.9 °F /  7.7 °C 30.28in /  1025.3hPa Calm   2mph /  3.2km/h 54% 0.00in /  0mm 0 W/m2
20:59 62.5 °F /  16.9 °C 45.7 °F /  7.6 °C 30.28in /  1025.3hPa Calm   2mph /  3.2km/h 54% 0.00in /  0mm 0 W/m2
21:04 62.3 °F /  16.8 °C 45.7 °F /  7.6 °C 30.28in /  1025.3hPa WSW 0.4mph /  0.6km/h 2mph /  3.2km/h 54.5% 0.00in /  0mm 0 W/m2
21:09 62 °F /  16.7 °C 45.5 °F /  7.5 °C 30.28in /  1025.3hPa WSW 0.2mph /  0.3km/h 3mph /  4.8km/h 54.7% 0.00in /  0mm 0 W/m2
21:14 61.8 °F /  16.6 °C 45.6 °F /  7.6 °C 30.29in /  1025.6hPa Calm   3mph /  4.8km/h 55.3% 0.00in /  0mm 0 W/m2
21:19 61.6 °F /  16.4 °C 46 °F /  7.8 °C 30.29in /  1025.6hPa Calm   3mph /  4.8km/h 56.5% 0.00in /  0mm 0 W/m2
21:24 61.3 °F /  16.3 °C 46 °F /  7.8 °C 30.30in /  1026hPa WSW 0.2mph /  0.3km/h 3mph /  4.8km/h 57.1% 0.00in /  0mm 0 W/m2
21:29 61 °F /  16.1 °C 46.6 °F /  8.1 °C 30.30in /  1026hPa WSW 0.5mph /  0.8km/h 3mph /  4.8km/h 58.9% 0.00in /  0mm 0 W/m2
21:34 60.7 °F /  15.9 °C 46.9 °F /  8.3 °C 30.30in /  1026hPa WSW 0.3mph /  0.5km/h 3mph /  4.8km/h 60.4% 0.00in /  0mm 0 W/m2
21:39 60.4 °F /  15.8 °C 47.4 °F /  8.6 °C 30.30in /  1026hPa WSW 0.4mph /  0.6km/h 3mph /  4.8km/h 62% 0.00in /  0mm 0 W/m2
21:44 60.1 °F /  15.6 °C 48.1 °F /  8.9 °C 30.30in /  1026hPa SW 0.4mph /  0.6km/h 4mph /  6.4km/h 64.6% 0.00in /  0mm 0 W/m2
21:49 59.9 °F /  15.5 °C 48.4 °F /  9.1 °C 30.31in /  1026.3hPa SSW 0.7mph /  1.1km/h 4mph /  6.4km/h 65.7% 0.00in /  0mm 0 W/m2
21:54 59.6 °F /  15.3 °C 48.5 °F /  9.2 °C 30.31in /  1026.3hPa SSW 1.2mph /  1.9km/h 5mph /  8km/h 66.8% 0.00in /  0mm 0 W/m2
21:59 59.1 °F /  15.1 °C 48.7 °F /  9.3 °C 30.31in /  1026.3hPa South 0.9mph /  1.4km/h 5mph /  8km/h 68.2% 0.00in /  0mm 0 W/m2
22:04 58.8 °F /  14.9 °C 48.6 °F /  9.2 °C 30.31in /  1026.3hPa SSW 0.5mph /  0.8km/h 5mph /  8km/h 69% 0.00in /  0mm 0 W/m2
22:09 58.5 °F /  14.7 °C 48.7 °F /  9.3 °C 30.31in /  1026.3hPa Calm   4mph /  6.4km/h 69.8% 0.00in /  0mm 0 W/m2
22:14 58.2 °F /  14.6 °C 48.9 °F /  9.4 °C 30.31in /  1026.3hPa Calm   4mph /  6.4km/h 71% 0.00in /  0mm 0 W/m2
22:19 58 °F /  14.4 °C 48.7 °F /  9.3 °C 30.32in /  1026.6hPa Calm   4mph /  6.4km/h 71% 0.00in /  0mm 0 W/m2
22:24 57.8 °F /  14.3 °C 48.7 °F /  9.3 °C 30.32in /  1026.6hPa Calm   4mph /  6.4km/h 71.8% 0.00in /  0mm 0 W/m2
22:28 57.6 °F /  14.2 °C 48.6 °F /  9.2 °C 30.31in /  1026.3hPa SSW 0.1mph /  0.2km/h 4mph /  6.4km/h 72% 0.00in /  0mm 0 W/m2
22:34 57.4 °F /  14.1 °C 48.1 °F /  8.9 °C 30.32in /  1026.6hPa SSW 0.3mph /  0.5km/h 4mph /  6.4km/h 71.2% 0.00in /  0mm 0 W/m2
22:39 57.1 °F /  13.9 °C 47.6 °F /  8.7 °C 30.32in /  1026.6hPa SSW 0.1mph /  0.2km/h 2mph /  3.2km/h 70.4% 0.00in /  0mm 0 W/m2
22:44 56.9 °F /  13.8 °C 47.4 °F /  8.6 °C 30.32in /  1026.6hPa Calm   2mph /  3.2km/h 70.4% 0.00in /  0mm 0 W/m2
22:49 56.8 °F /  13.8 °C 47.5 °F /  8.6 °C 30.32in /  1026.6hPa Calm   2mph /  3.2km/h 71% 0.00in /  0mm 0 W/m2
22:54 56.6 °F /  13.7 °C 47.2 °F /  8.4 °C 30.32in /  1026.6hPa Calm   2mph /  3.2km/h 70.8% 0.00in /  0mm 0 W/m2
22:59 56.4 °F /  13.6 °C 46.9 °F /  8.3 °C 30.32in /  1026.6hPa Calm   2mph /  3.2km/h 70.5% 0.00in /  0mm 0 W/m2
23:04 56.2 °F /  13.4 °C 46.4 °F /  8 °C 30.32in /  1026.6hPa Calm   2mph /  3.2km/h 69.6% 0.00in /  0mm 0 W/m2
23:09 56 °F /  13.3 °C 45.8 °F /  7.7 °C 30.32in /  1026.6hPa Calm     68.6% 0.00in /  0mm 0 W/m2
23:14 55.9 °F /  13.3 °C 45.6 °F /  7.6 °C 30.32in /  1026.6hPa Calm     68.2% 0.00in /  0mm 0 W/m2
23:18 55.8 °F /  13.2 °C 45.8 °F /  7.7 °C 30.32in /  1026.6hPa Calm     69% 0.00in /  0mm 0 W/m2
23:24 55.6 °F /  13.1 °C 45.6 °F /  7.6 °C 30.32in /  1026.6hPa Calm     69% 0.00in /  0mm 0 W/m2
23:29 55.4 °F /  13 °C 45.5 °F /  7.5 °C 30.32in /  1026.6hPa Calm     69% 0.00in /  0mm 0 W/m2
23:34 55.3 °F /  12.9 °C 45.7 °F /  7.6 °C 30.32in /  1026.6hPa Calm     70% 0.00in /  0mm 0 W/m2
23:39 55.1 °F /  12.8 °C 45.6 °F /  7.6 °C 30.32in /  1026.6hPa Calm     70.2% 0.00in /  0mm 0 W/m2
23:44 55 °F /  12.8 °C 45.8 °F /  7.7 °C 30.32in /  1026.6hPa Calm     71.2% 0.00in /  0mm 0 W/m2
23:49 54.8 °F /  12.7 °C 46 °F /  7.8 °C 30.32in /  1026.6hPa Calm     72% 0.00in /  0mm 0 W/m2
23:54 54.7 °F /  12.6 °C 46 °F /  7.8 °C 30.32in /  1026.6hPa Calm     72.5% 0.00in /  0mm 0 W/m2
23:59 54.6 °F /  12.6 °C 46.1 °F /  7.8 °C 30.32in /  1026.6hPa Calm     73% 0.00in /  0mm 0 W/m2
Hartford County Weather
Compliments of Weather Underground - 2 mb